createdAt,value
2023-03-21T00:00:43.081Z,28.42
2023-03-21T00:03:10.057Z,22.38
2023-03-21T00:05:49.733Z,24.67
2023-03-21T00:08:19.034Z,26.80
2023-03-21T00:10:45.750Z,32.60
2023-03-21T00:13:13.858Z,27.90
2023-03-21T00:16:04.003Z,26.90
2023-03-21T00:18:36.886Z,26.35
2023-03-21T00:21:37.741Z,26.83
2023-03-21T00:23:51.813Z,32.47
2023-03-21T00:26:18.557Z,27.98
2023-03-21T00:28:45.305Z,27.10
2023-03-21T00:31:11.940Z,22.38
2023-03-21T00:33:41.377Z,26.92
2023-03-21T00:36:09.314Z,36.50
2023-03-21T00:38:36.828Z,24.27
2023-03-21T00:41:18.883Z,24.45
2023-03-21T00:43:52.055Z,34.00
2023-03-21T00:46:19.587Z,31.15
2023-03-21T00:48:47.230Z,25.05
2023-03-21T00:51:26.454Z,31.77
2023-03-21T00:53:59.573Z,24.38
2023-03-21T00:56:26.285Z,26.08
2023-03-21T00:58:52.959Z,27.50
2023-03-21T01:01:19.823Z,24.45
2023-03-21T01:03:51.120Z,26.73
2023-03-21T01:06:19.715Z,26.02
2023-03-21T01:08:52.570Z,28.05
2023-03-21T01:11:23.724Z,30.25
2023-03-21T01:14:10.877Z,21.73
2023-03-21T01:16:38.041Z,25.20
2023-03-21T01:19:09.250Z,29.27
2023-03-21T01:21:41.488Z,37.47
2023-03-21T01:24:08.413Z,21.58
2023-03-21T01:26:37.493Z,27.70
2023-03-21T01:29:06.999Z,27.90
2023-03-21T01:31:34.100Z,26.30
2023-03-21T01:34:01.042Z,25.10
2023-03-21T01:36:28.127Z,26.23
2023-03-21T01:38:55.103Z,26.45
2023-03-21T01:41:33.592Z,18.55
2023-03-21T01:47:13.417Z,31.65
2023-03-21T01:49:46.259Z,32.75
2023-03-21T01:52:26.376Z,31.85
2023-03-21T01:54:57.649Z,26.88
2023-03-21T01:57:47.318Z,25.42
2023-03-21T02:00:25.100Z,24.90
2023-03-21T02:02:58.242Z,28.65
2023-03-21T02:05:44.490Z,21.15
2023-03-21T02:08:11.249Z,27.35
2023-03-21T02:10:37.941Z,22.92
2023-03-21T02:13:09.850Z,27.02
2023-03-21T02:15:42.092Z,28.65
2023-03-21T02:18:08.653Z,19.95
2023-03-21T02:20:44.134Z,23.40
2023-03-21T02:26:36.158Z,30.20
2023-03-21T02:29:12.959Z,21.45
2023-03-21T02:32:17.904Z,25.92
2023-03-21T02:35:00.698Z,29.73
2023-03-21T02:37:42.936Z,32.83
2023-03-21T02:40:24.479Z,22.85
2023-03-21T02:43:01.684Z,26.77
2023-03-21T02:46:02.475Z,29.25
2023-03-21T02:48:49.900Z,30.10
2023-03-21T02:51:20.535Z,25.65
2023-03-21T02:54:04.607Z,26.02
2023-03-21T02:56:38.061Z,29.30
2023-03-21T02:59:05.847Z,24.73
2023-03-21T03:01:32.600Z,26.67
2023-03-21T03:03:59.500Z,31.95
2023-03-21T03:06:58.295Z,21.50
2023-03-21T03:09:33.663Z,22.02
2023-03-21T03:12:11.268Z,21.58
2023-03-21T03:15:02.655Z,22.88
2023-03-21T03:18:06.211Z,26.45
2023-03-21T03:20:35.938Z,18.83
2023-03-21T03:23:07.950Z,26.35
2023-03-21T03:25:44.530Z,19.85
2023-03-21T03:28:13.190Z,23.48
2023-03-21T03:30:45.044Z,24.80
2023-03-21T03:33:17.158Z,23.42
2023-03-21T03:35:50.304Z,23.05
2023-03-21T03:38:22.201Z,20.73
2023-03-21T03:40:52.118Z,28.77
2023-03-21T03:43:24.421Z,21.98
2023-03-21T03:45:56.920Z,25.75
2023-03-21T03:48:26.565Z,25.05
2023-03-21T03:51:09.179Z,22.40
2023-03-21T03:53:41.155Z,23.23
2023-03-21T03:56:09.779Z,30.75
2023-03-21T03:58:45.282Z,22.75
2023-03-21T04:01:12.833Z,24.55
2023-03-21T04:03:48.995Z,20.02
2023-03-21T04:06:17.711Z,25.17
2023-03-21T04:08:44.696Z,30.05
2023-03-21T04:11:14.906Z,21.25
2023-03-21T04:13:42.119Z,28.92
2023-03-21T04:16:10.191Z,25.27
2023-03-21T04:18:39.195Z,36.22
2023-03-21T04:21:13.490Z,32.55
2023-03-21T04:23:41.239Z,24.58
2023-03-21T04:26:08.231Z,27.05
2023-03-21T04:28:36.433Z,30.58
2023-03-21T04:31:16.158Z,25.02
2023-03-21T04:33:50.125Z,21.33
2023-03-21T04:36:25.212Z,31.50
2023-03-21T04:38:52.577Z,30.75
2023-03-21T04:41:19.726Z,24.90
2023-03-21T04:43:47.506Z,33.13
2023-03-21T04:46:14.397Z,33.70
2023-03-21T04:48:41.320Z,31.10
2023-03-21T04:51:08.071Z,35.13
2023-03-21T04:53:34.793Z,24.45
2023-03-21T04:56:01.826Z,30.17
2023-03-21T04:58:28.580Z,26.60
2023-03-21T05:00:55.302Z,28.67
2023-03-21T05:03:22.091Z,29.65
2023-03-21T05:05:49.703Z,27.60
2023-03-21T05:08:16.672Z,30.25
2023-03-21T05:10:43.556Z,35.83
2023-03-21T05:13:10.405Z,25.38
2023-03-21T05:15:37.298Z,22.73
2023-03-21T05:18:11.559Z,32.70
2023-03-21T05:20:47.194Z,26.52
2023-03-21T05:23:13.943Z,31.73
2023-03-21T05:25:40.787Z,33.38
2023-03-21T05:28:08.152Z,31.73
2023-03-21T05:30:35.043Z,36.80
2023-03-21T05:33:01.799Z,32.97
2023-03-21T05:35:28.657Z,26.75
2023-03-21T05:37:55.658Z,37.42
2023-03-21T05:40:22.444Z,27.63
2023-03-21T05:42:49.365Z,35.53
2023-03-21T05:45:16.222Z,31.30
2023-03-21T05:47:42.966Z,27.30
2023-03-21T05:50:11.379Z,37.17
2023-03-21T05:52:38.055Z,43.95
2023-03-21T05:55:05.549Z,41.20
2023-03-21T05:57:35.162Z,39.95
2023-03-21T06:00:02.432Z,35.80
2023-03-21T06:02:29.131Z,39.28
2023-03-21T06:04:56.735Z,42.83
2023-03-21T06:07:23.383Z,35.15
2023-03-21T06:09:50.171Z,51.70
2023-03-21T06:12:16.897Z,36.75
2023-03-21T06:14:43.535Z,40.10
2023-03-21T06:17:10.225Z,34.72
2023-03-21T06:19:36.942Z,41.30
2023-03-21T06:22:03.721Z,49.55
2023-03-21T06:24:30.346Z,41.45
2023-03-21T06:26:57.340Z,41.00
2023-03-21T06:29:24.990Z,34.03
2023-03-21T06:31:51.694Z,38.58
2023-03-21T06:34:18.348Z,34.97
2023-03-21T06:36:46.789Z,43.25
2023-03-21T06:39:13.637Z,33.45
2023-03-21T06:41:40.992Z,40.35
2023-03-21T06:44:08.095Z,39.40
2023-03-21T06:46:34.815Z,38.42
2023-03-21T06:49:01.476Z,38.47
2023-03-21T06:54:12.311Z,42.78
2023-03-21T06:56:39.159Z,39.65
2023-03-21T06:59:05.821Z,38.30
2023-03-21T07:01:32.506Z,35.30
2023-03-21T07:03:59.686Z,38.13
2023-03-21T07:06:26.628Z,37.20
2023-03-21T07:08:54.757Z,36.67
2023-03-21T07:11:22.413Z,46.78
2023-03-21T07:13:49.704Z,35.60
2023-03-21T07:16:17.556Z,34.63
2023-03-21T07:18:44.385Z,38.80
2023-03-21T07:21:11.214Z,28.58
2023-03-21T07:23:38.471Z,35.65
2023-03-21T07:26:05.831Z,25.02
2023-03-21T07:28:33.611Z,30.30
2023-03-21T07:31:04.094Z,36.05
2023-03-21T07:33:32.171Z,42.78
2023-03-21T07:35:59.380Z,41.47
2023-03-21T07:38:26.590Z,48.30
2023-03-21T07:40:53.629Z,40.35
2023-03-21T07:43:20.429Z,42.88
2023-03-21T07:45:47.181Z,47.63
2023-03-21T07:48:14.765Z,48.60
2023-03-21T07:50:41.546Z,43.97
2023-03-21T07:53:08.920Z,43.60
2023-03-21T07:55:35.926Z,43.15
2023-03-21T07:58:04.199Z,41.38
2023-03-21T08:00:31.552Z,52.58
2023-03-21T08:02:59.723Z,43.42
2023-03-21T08:05:45.006Z,41.85
2023-03-21T08:08:11.754Z,51.17
2023-03-21T08:10:38.678Z,49.05
2023-03-21T08:13:05.616Z,51.33
2023-03-21T08:15:32.364Z,34.17
2023-03-21T08:18:00.122Z,46.63
2023-03-21T08:20:27.881Z,42.17
2023-03-21T08:22:54.875Z,39.53
2023-03-21T08:25:22.148Z,41.90
2023-03-21T08:27:50.409Z,51.33
2023-03-21T08:30:22.741Z,59.00
2023-03-21T08:32:49.667Z,44.20
2023-03-21T08:35:18.721Z,46.88
2023-03-21T08:37:45.467Z,51.10
2023-03-21T08:40:15.808Z,41.70
2023-03-21T08:42:44.185Z,55.83
2023-03-21T08:45:11.784Z,46.65
2023-03-21T08:47:38.709Z,41.92
2023-03-21T08:50:08.638Z,46.28
2023-03-21T08:52:35.347Z,44.67
2023-03-21T08:55:02.443Z,33.03
2023-03-21T08:57:30.831Z,33.22
2023-03-21T08:59:57.525Z,41.88
2023-03-21T09:02:24.227Z,42.75
2023-03-21T09:04:53.211Z,44.95
2023-03-21T09:07:20.182Z,47.65
2023-03-21T09:09:53.353Z,39.63
2023-03-21T09:12:24.830Z,40.10
2023-03-21T09:14:53.306Z,47.45
2023-03-21T09:17:21.263Z,40.60
2023-03-21T09:19:49.316Z,43.55
2023-03-21T09:22:18.029Z,35.53
2023-03-21T09:24:47.686Z,34.45
2023-03-21T09:27:17.495Z,39.50
2023-03-21T09:29:45.094Z,40.90
2023-03-21T09:32:13.485Z,38.13
2023-03-21T09:34:41.886Z,33.33
2023-03-21T09:37:13.367Z,44.72
2023-03-21T09:39:41.262Z,48.40
2023-03-21T09:42:25.868Z,40.08
2023-03-21T09:44:59.032Z,44.92
2023-03-21T09:47:29.403Z,46.03
2023-03-21T09:50:07.548Z,42.50
2023-03-21T09:52:48.217Z,50.30
2023-03-21T09:55:19.010Z,53.83
2023-03-21T09:57:49.466Z,48.00
2023-03-21T10:00:25.288Z,53.20
2023-03-21T10:02:57.257Z,43.88
2023-03-21T10:05:27.098Z,42.65
2023-03-21T10:08:08.940Z,42.70
2023-03-21T10:10:45.452Z,44.45
2023-03-21T10:13:27.333Z,39.20
2023-03-21T10:16:30.109Z,36.00
2023-03-21T10:18:56.963Z,53.05
2023-03-21T10:24:18.638Z,49.97
2023-03-21T10:26:46.005Z,38.65
2023-03-21T10:29:14.647Z,43.70
2023-03-21T10:31:42.366Z,36.13
2023-03-21T10:34:40.118Z,48.20
2023-03-21T10:37:07.284Z,38.92
2023-03-21T10:39:37.232Z,47.92
2023-03-21T10:42:04.062Z,56.83
2023-03-21T10:44:35.723Z,49.20
2023-03-21T10:47:08.430Z,50.75
2023-03-21T10:49:56.567Z,52.20
2023-03-21T10:52:27.898Z,54.88
2023-03-21T10:55:08.535Z,47.80
2023-03-21T10:57:38.172Z,42.60
2023-03-21T11:00:16.446Z,64.25
2023-03-21T11:02:43.457Z,42.63
2023-03-21T11:05:27.002Z,44.28
2023-03-21T11:08:03.669Z,36.60
2023-03-21T11:10:37.048Z,38.00
2023-03-21T11:13:07.449Z,40.60
2023-03-21T11:15:40.332Z,40.13
2023-03-21T11:18:23.503Z,43.33
2023-03-21T11:20:51.997Z,36.72
2023-03-21T11:23:20.779Z,41.85
2023-03-21T11:25:51.610Z,41.83
2023-03-21T11:28:23.647Z,33.47
2023-03-21T11:30:54.278Z,47.25
2023-03-21T11:33:22.742Z,34.70
2023-03-21T11:36:04.678Z,50.30
2023-03-21T11:38:36.616Z,36.90
2023-03-21T11:41:05.098Z,37.13
2023-03-21T11:43:47.037Z,45.38
2023-03-21T11:46:14.921Z,34.53
2023-03-21T11:48:44.443Z,48.03
2023-03-21T11:51:31.354Z,36.15
2023-03-21T11:54:29.521Z,44.38
2023-03-21T11:57:38.207Z,47.65
2023-03-21T12:00:14.507Z,46.97
2023-03-21T12:02:48.429Z,38.03
2023-03-21T12:05:21.739Z,42.17
2023-03-21T12:08:06.507Z,43.35
2023-03-21T12:10:51.129Z,41.65
2023-03-21T12:13:33.772Z,42.38
2023-03-21T12:16:41.535Z,42.92
2023-03-21T12:19:41.384Z,43.22
2023-03-21T12:22:38.665Z,43.70
2023-03-21T12:25:27.907Z,44.17
2023-03-21T12:28:23.793Z,46.67
2023-03-21T12:31:21.120Z,51.78
2023-03-21T12:34:03.124Z,40.13
2023-03-21T12:37:11.074Z,51.15
2023-03-21T12:39:40.376Z,48.22
2023-03-21T12:42:36.602Z,61.47
2023-03-21T12:45:19.994Z,51.05
2023-03-21T12:47:56.391Z,31.05
2023-03-21T12:50:26.810Z,38.50
2023-03-21T12:52:59.790Z,38.00
2023-03-21T12:55:34.478Z,44.10
2023-03-21T12:58:16.731Z,52.80
2023-03-21T13:01:01.859Z,37.28
2023-03-21T13:03:40.454Z,46.20
2023-03-21T13:06:10.385Z,63.28
2023-03-21T13:08:50.325Z,44.17
2023-03-21T13:11:23.968Z,47.88
2023-03-21T13:14:12.638Z,41.25
2023-03-21T13:16:49.346Z,46.78
2023-03-21T13:19:44.166Z,32.03
2023-03-21T13:22:15.305Z,64.25
2023-03-21T13:24:49.753Z,40.65
2023-03-21T13:27:25.062Z,50.53
2023-03-21T13:29:53.080Z,43.90
2023-03-21T13:32:29.436Z,50.45
2023-03-21T13:35:18.142Z,55.15
2023-03-21T13:37:53.324Z,51.88
2023-03-21T13:40:24.209Z,54.30
2023-03-21T13:42:59.259Z,47.10
2023-03-21T13:45:33.353Z,49.17
2023-03-21T13:48:04.525Z,55.50
2023-03-21T13:50:52.246Z,53.70
2023-03-21T13:53:24.361Z,41.95
2023-03-21T13:56:22.148Z,53.80
2023-03-21T13:58:53.033Z,49.90
2023-03-21T14:01:36.508Z,53.70
2023-03-21T14:04:27.173Z,44.70
2023-03-21T14:07:16.921Z,61.15
2023-03-21T14:09:48.753Z,49.95
2023-03-21T14:12:21.325Z,62.17
2023-03-21T14:14:51.672Z,46.53
2023-03-21T14:17:26.832Z,51.65
2023-03-21T14:19:55.564Z,49.60
2023-03-21T14:22:22.275Z,53.00
2023-03-21T14:24:57.209Z,44.85
2023-03-21T14:27:28.076Z,50.28
2023-03-21T14:29:55.699Z,51.60
2023-03-21T14:32:24.284Z,42.28
2023-03-21T14:34:51.087Z,38.67
2023-03-21T14:37:34.753Z,50.67
2023-03-21T14:40:09.067Z,50.45
2023-03-21T14:42:37.142Z,46.22
2023-03-21T14:45:25.422Z,54.22
2023-03-21T14:48:19.281Z,54.83
2023-03-21T14:50:54.451Z,43.97
2023-03-21T14:53:36.586Z,57.38
2023-03-21T14:56:10.681Z,64.30
2023-03-21T14:58:41.787Z,83.30
2023-03-21T15:01:16.194Z,48.30
2023-03-21T15:03:47.670Z,65.10
2023-03-21T15:06:15.025Z,54.65
2023-03-21T15:09:00.840Z,48.65
2023-03-21T15:11:33.378Z,66.63
2023-03-21T15:14:03.330Z,60.83
2023-03-21T15:16:30.715Z,54.78
2023-03-21T15:18:57.613Z,65.43
2023-03-21T15:21:30.326Z,55.40
2023-03-21T15:24:00.697Z,67.43
2023-03-21T15:26:27.663Z,58.00
2023-03-21T15:28:58.611Z,52.25
2023-03-21T15:31:47.072Z,53.90
2023-03-21T15:34:26.324Z,77.63
2023-03-21T15:37:01.407Z,51.10
2023-03-21T15:39:29.409Z,54.58
2023-03-21T15:41:58.922Z,57.13
2023-03-21T15:44:26.736Z,54.50
2023-03-21T15:46:54.199Z,46.70
2023-03-21T15:49:34.805Z,53.30
2023-03-21T15:52:14.340Z,46.38
2023-03-21T15:54:50.939Z,78.38
2023-03-21T15:57:25.052Z,44.83
2023-03-21T15:59:57.013Z,52.10
2023-03-21T16:02:25.359Z,54.35
2023-03-21T16:05:21.997Z,98.13
2023-03-21T16:07:48.807Z,62.45
2023-03-21T16:10:29.223Z,42.67
2023-03-21T16:12:57.246Z,50.45
2023-03-21T16:15:25.736Z,47.30
2023-03-21T16:17:56.025Z,47.88
2023-03-21T16:20:25.794Z,56.50
2023-03-21T16:22:52.785Z,46.25
2023-03-21T16:25:20.240Z,51.03
2023-03-21T16:27:47.829Z,59.50
2023-03-21T16:30:18.516Z,52.72
2023-03-21T16:32:45.299Z,53.47
2023-03-21T16:35:12.089Z,46.53
2023-03-21T16:37:39.418Z,44.67
2023-03-21T16:40:35.937Z,45.35
2023-03-21T16:43:04.111Z,43.75
2023-03-21T16:45:31.097Z,42.72
2023-03-21T16:47:58.416Z,53.25
2023-03-21T16:50:31.878Z,48.72
2023-03-21T16:52:58.925Z,35.22
2023-03-21T16:55:25.978Z,36.58
2023-03-21T16:57:53.744Z,44.55
2023-03-21T17:00:24.358Z,41.15
2023-03-21T17:02:53.602Z,43.05
2023-03-21T17:05:28.500Z,47.88
2023-03-21T17:07:57.469Z,47.47
2023-03-21T17:10:26.664Z,45.67
2023-03-21T17:12:53.878Z,41.75
2023-03-21T17:15:21.579Z,50.53
2023-03-21T17:17:52.096Z,49.30
2023-03-21T17:20:22.004Z,54.45
2023-03-21T17:22:49.174Z,49.30
2023-03-21T17:25:16.482Z,80.50
2023-03-21T17:27:43.374Z,57.15
2023-03-21T17:30:21.931Z,57.55
2023-03-21T17:32:50.374Z,55.05
2023-03-21T17:35:17.868Z,52.58
2023-03-21T17:37:50.318Z,50.50
2023-03-21T17:40:24.957Z,42.53
2023-03-21T17:42:52.117Z,44.80
2023-03-21T17:45:19.756Z,41.30
2023-03-21T17:47:46.733Z,56.40
2023-03-21T17:50:19.464Z,51.05
2023-03-21T17:52:47.661Z,53.00
2023-03-21T17:55:19.399Z,47.35
2023-03-21T17:57:47.095Z,50.83
2023-03-21T18:00:20.951Z,44.08
2023-03-21T18:02:48.289Z,39.55
2023-03-21T18:05:15.574Z,44.78
2023-03-21T18:08:08.870Z,48.03
2023-03-21T18:10:30.086Z,53.60
2023-03-21T18:12:56.915Z,49.15
2023-03-21T18:15:25.623Z,41.20
2023-03-21T18:17:53.317Z,39.95
2023-03-21T18:20:22.555Z,39.42
2023-03-21T18:22:51.364Z,40.60
2023-03-21T18:25:18.577Z,40.53
2023-03-21T18:28:09.214Z,43.90
2023-03-21T18:30:50.437Z,44.88
2023-03-21T18:33:18.823Z,48.03
2023-03-21T18:35:46.732Z,46.25
2023-03-21T18:38:13.682Z,43.67
2023-03-21T18:40:40.975Z,48.00
2023-03-21T18:43:58.441Z,44.88
2023-03-21T18:45:55.117Z,44.88
2023-03-21T18:48:21.857Z,37.70
2023-03-21T18:50:48.642Z,47.53
2023-03-21T18:53:16.512Z,49.17
2023-03-21T18:55:46.546Z,39.45
2023-03-21T18:58:14.522Z,37.13
2023-03-21T19:00:42.810Z,37.25
2023-03-21T19:03:21.752Z,40.78
2023-03-21T19:05:59.871Z,38.05
2023-03-21T19:08:26.813Z,42.33
2023-03-21T19:10:53.466Z,42.95
2023-03-21T19:13:20.132Z,41.08
2023-03-21T19:15:49.584Z,34.58
2023-03-21T19:21:04.089Z,48.88
2023-03-21T19:23:43.505Z,43.20
2023-03-21T19:26:17.940Z,27.58
2023-03-21T19:28:44.638Z,49.33
2023-03-21T19:31:11.311Z,46.72
2023-03-21T19:33:38.028Z,36.22
2023-03-21T19:36:17.567Z,33.15
2023-03-21T19:38:45.046Z,29.80
2023-03-21T19:41:11.780Z,35.17
2023-03-21T19:43:40.227Z,32.03
2023-03-21T19:46:08.315Z,24.67
2023-03-21T19:48:35.279Z,32.80
2023-03-21T19:53:49.529Z,25.88
2023-03-21T19:56:22.298Z,26.92
2023-03-21T19:58:51.774Z,32.00
2023-03-21T20:01:18.486Z,30.33
2023-03-21T20:03:45.983Z,27.00
2023-03-21T20:06:13.076Z,26.60
2023-03-21T20:11:26.515Z,27.65
2023-03-21T20:13:53.241Z,27.05
2023-03-21T20:16:20.519Z,28.65
2023-03-21T20:18:47.346Z,28.30
2023-03-21T20:21:18.060Z,30.88
2023-03-21T20:23:49.292Z,44.47
2023-03-21T20:26:16.896Z,33.60
2023-03-21T20:28:56.100Z,28.08
2023-03-21T20:31:30.808Z,31.63
2023-03-21T20:33:57.632Z,28.20
2023-03-21T20:36:38.836Z,30.58
2023-03-21T20:39:07.053Z,29.90
2023-03-21T20:41:33.728Z,31.00
2023-03-21T20:46:49.891Z,25.38
2023-03-21T20:49:16.664Z,26.70
2023-03-21T20:54:30.250Z,29.80
2023-03-21T20:56:57.315Z,35.90
2023-03-21T20:59:27.678Z,30.77
2023-03-21T21:01:56.242Z,24.25
2023-03-21T21:04:42.740Z,23.85
2023-03-21T21:07:15.914Z,29.02
2023-03-21T21:09:46.597Z,25.65
2023-03-21T21:12:15.185Z,27.25
2023-03-21T21:14:42.459Z,23.42
2023-03-21T21:17:28.305Z,27.30
2023-03-21T21:19:57.469Z,27.50
2023-03-21T21:22:24.091Z,22.02
2023-03-21T21:24:50.712Z,21.75
2023-03-21T21:27:17.381Z,24.20
2023-03-21T21:29:47.830Z,25.65
2023-03-21T21:32:17.056Z,36.17
2023-03-21T21:34:43.760Z,25.00
2023-03-21T21:37:10.704Z,26.70
2023-03-21T21:39:38.685Z,29.13
2023-03-21T21:42:05.875Z,26.70
2023-03-21T21:44:32.529Z,23.85
2023-03-21T21:46:59.406Z,23.35
2023-03-21T21:49:26.889Z,30.27
2023-03-21T21:51:53.599Z,29.75
2023-03-21T21:54:20.255Z,27.30
2023-03-21T21:56:54.220Z,31.42
2023-03-21T21:59:22.377Z,26.27
2023-03-21T22:01:51.490Z,26.50
2023-03-21T22:04:19.602Z,26.38
2023-03-21T22:06:47.814Z,28.13
2023-03-21T22:09:15.861Z,30.10
2023-03-21T22:11:42.681Z,22.58
2023-03-21T22:14:09.411Z,25.95
2023-03-21T22:16:36.422Z,28.98
2023-03-21T22:19:03.318Z,28.67
2023-03-21T22:21:30.014Z,28.60
2023-03-21T22:23:56.648Z,26.38
2023-03-21T22:26:23.518Z,23.00
2023-03-21T22:28:50.378Z,25.88
2023-03-21T22:31:17.224Z,30.98
2023-03-21T22:33:44.867Z,24.38
2023-03-21T22:36:12.048Z,24.73
2023-03-21T22:38:38.749Z,27.27
2023-03-21T22:41:06.673Z,27.40
2023-03-21T22:43:34.487Z,26.92
2023-03-21T22:46:02.829Z,25.67
2023-03-21T22:48:32.594Z,29.48
2023-03-21T22:51:00.349Z,28.33
2023-03-21T22:53:27.136Z,24.15
2023-03-21T22:55:54.006Z,30.42
2023-03-21T22:58:21.014Z,22.17
2023-03-21T23:00:47.776Z,25.00
2023-03-21T23:03:16.758Z,24.77
2023-03-21T23:05:44.322Z,25.25
2023-03-21T23:08:11.161Z,22.70
2023-03-21T23:10:39.625Z,22.00
2023-03-21T23:13:06.570Z,25.55
2023-03-21T23:15:33.357Z,28.40
2023-03-21T23:17:59.971Z,30.48
2023-03-21T23:20:26.641Z,25.92
2023-03-21T23:22:53.401Z,27.13
2023-03-21T23:25:20.657Z,27.50
2023-03-21T23:27:47.812Z,23.80
2023-03-21T23:30:14.970Z,24.70
2023-03-21T23:32:42.049Z,27.25
2023-03-21T23:35:09.197Z,24.27
2023-03-21T23:37:35.962Z,26.23
2023-03-21T23:40:04.477Z,26.90
2023-03-21T23:42:31.195Z,21.63
2023-03-21T23:44:57.843Z,27.67
2023-03-21T23:47:24.548Z,29.08
2023-03-21T23:49:52.809Z,24.92
2023-03-21T23:52:19.523Z,28.23
2023-03-21T23:54:46.345Z,25.85
2023-03-21T23:57:13.026Z,26.63
2023-03-21T23:59:39.711Z,27.10
